Time;durP1;ratioP1;P1;durP2;ratioP2;P2;SDS_P1;SDS_P2;PMS_P1;PMS_P2;Temp;Humidity;BMP_temperature;BMP_pressure;BME280_temperature;BME280_humidity;BME280_pressure;Samples;Min_cycle;Max_cycle;Signal;HPM_P1;HPM_P2
2022/11/21 00:00:39;;;;;;;;;;;;;;;9.93;60.74;100242.03;5074987;28;20388;-80
2022/11/21 00:03:24;;;;;;;;;;;;;;;9.90;60.82;100239.19;5056448;28;19917;-79
2022/11/21 00:06:08;;;;;;;;;;;;;;;10.10;60.37;100236.56;5062823;28;19917;-76
2022/11/21 00:08:54;;;;;;;;;;;;;;;9.98;60.92;100231.00;5061525;28;19927;-79
2022/11/21 00:11:38;;;;;;;;;;;;;;;10.24;60.14;100230.97;5074561;28;19916;-77
2022/11/21 00:14:23;;;;;;;;;;;;;;;10.26;60.34;100234.94;5034536;28;19922;-77
2022/11/21 00:17:07;;;;;;;;;;;;;;;10.51;59.39;100238.72;5034480;28;20385;-78
2022/11/21 00:19:51;;;;;;;;;;;;;;;9.79;61.58;100234.06;5034515;28;19917;-78
2022/11/21 00:22:36;;;;;;;;;;;;;;;9.55;62.64;100246.56;5022553;28;19917;-79
2022/11/21 00:25:20;;;;;;;;;;;;;;;9.31;63.73;100255.94;5052824;28;20385;-78
2022/11/21 00:28:05;;;;;;;;;;;;;;;9.28;64.10;100261.22;5055824;28;20393;-78
2022/11/21 00:30:49;;;;;;;;;;;;;;;9.40;63.79;100259.47;5050816;28;19917;-80
2022/11/21 00:33:35;;;;;;;;;;;;;;;9.38;63.62;100241.91;5049879;28;19921;-81
2022/11/21 00:36:20;;;;;;;;;;;;;;;9.55;62.01;100239.19;5030641;28;19917;-80
2022/11/21 00:39:04;;;;;;;;;;;;;;;9.45;62.53;100231.38;5028345;28;19920;-79
2022/11/21 00:41:48;;;;;;;;;;;;;;;9.76;61.71;100237.41;5041994;28;20293;-79
2022/11/21 00:44:33;;;;;;;;;;;;;;;9.67;61.24;100238.56;5041112;28;19921;-79
2022/11/21 00:47:17;;;;;;;;;;;;;;;9.72;61.49;100231.03;5055882;28;19917;-79
2022/11/21 00:50:02;;;;;;;;;;;;;;;9.67;61.53;100233.13;5062145;28;20369;-79
2022/11/21 00:52:46;;;;;;;;;;;;;;;9.60;61.91;100232.81;5048985;28;19921;-80
2022/11/21 00:55:31;;;;;;;;;;;;;;;9.62;62.11;100244.13;5059327;28;19917;-80
2022/11/21 00:58:15;;;;;;;;;;;;;;;9.84;61.28;100235.81;5050255;28;19917;-79
2022/11/21 01:01:08;;;;;;;;;;;;;;;9.73;61.19;100229.13;5050916;28;19917;-80
2022/11/21 01:03:53;;;;;;;;;;;;;;;9.64;61.45;100231.06;5055064;28;19921;-77
2022/11/21 01:06:37;;;;;;;;;;;;;;;9.83;60.69;100236.94;5041941;28;19916;-79
2022/11/21 01:09:22;;;;;;;;;;;;;;;9.93;60.53;100236.59;5055646;28;19917;-81
2022/11/21 01:12:06;;;;;;;;;;;;;;;9.64;60.48;100218.28;5041723;28;20385;-79
2022/11/21 01:14:52;;;;;;;;;;;;;;;9.65;60.93;100214.44;5041069;28;19921;-81
2022/11/21 01:17:36;;;;;;;;;;;;;;;9.65;60.92;100213.66;5035186;28;19917;-77
2022/11/21 01:20:20;;;;;;;;;;;;;;;9.69;60.93;100212.69;5034900;28;19917;-79
2022/11/21 01:23:05;;;;;;;;;;;;;;;9.69;60.53;100209.19;5034312;28;19917;-79
2022/11/21 01:25:49;;;;;;;;;;;;;;;9.68;60.44;100208.38;5042604;28;20393;-79
2022/11/21 01:28:34;;;;;;;;;;;;;;;9.79;60.49;100215.06;5055601;28;20305;-79
2022/11/21 01:31:20;;;;;;;;;;;;;;;9.84;60.31;100219.53;5053380;28;19917;-79
2022/11/21 01:34:04;;;;;;;;;;;;;;;9.85;60.12;100229.28;5042853;28;19921;-80
2022/11/21 01:36:49;;;;;;;;;;;;;;;9.56;60.78;100238.06;5026454;28;19917;-79
2022/11/21 01:39:33;;;;;;;;;;;;;;;9.41;60.50;100236.63;5053554;28;19920;-80
2022/11/21 01:42:18;;;;;;;;;;;;;;;9.19;61.23;100244.13;5066913;28;19916;-78
2022/11/21 01:45:22;;;;;;;;;;;;;;;9.08;61.64;100248.25;5073513;28;19917;-77
2022/11/21 01:48:07;;;;;;;;;;;;;;;8.93;61.75;100249.50;5033332;28;19921;-79
2022/11/21 01:50:51;;;;;;;;;;;;;;;9.01;61.65;100251.44;5033658;28;19917;-79
2022/11/21 01:53:37;;;;;;;;;;;;;;;9.01;62.52;100256.84;5020221;28;19921;-78
2022/11/21 01:56:23;;;;;;;;;;;;;;;9.00;61.96;100244.41;5020261;28;19921;-78
2022/11/21 01:59:09;;;;;;;;;;;;;;;8.97;61.76;100237.72;5056087;28;20381;-79
2022/11/21 02:01:54;;;;;;;;;;;;;;;9.14;61.44;100231.53;5052766;28;19917;-78
2022/11/21 02:04:40;;;;;;;;;;;;;;;9.07;61.10;100233.91;5053121;28;19917;-79
2022/11/21 02:07:26;;;;;;;;;;;;;;;9.16;60.97;100237.41;5045439;28;19917;-79
2022/11/21 02:10:11;;;;;;;;;;;;;;;9.02;61.10;100239.47;5033161;28;20385;-79
2022/11/21 02:12:57;;;;;;;;;;;;;;;9.01;61.05;100240.59;5018073;28;20377;-79
2022/11/21 02:15:42;;;;;;;;;;;;;;;8.88;60.92;100236.09;5022027;28;20381;-79
2022/11/21 02:18:26;;;;;;;;;;;;;;;8.80;61.19;100231.44;5024270;28;19917;-78
2022/11/21 02:21:14;;;;;;;;;;;;;;;8.76;61.63;100233.19;5050669;28;19917;-78
2022/11/21 02:24:02;;;;;;;;;;;;;;;8.62;62.33;100232.50;5038535;28;19917;-79
2022/11/21 02:26:47;;;;;;;;;;;;;;;8.80;61.02;100226.00;5040427;28;19920;-79
2022/11/21 02:29:32;;;;;;;;;;;;;;;8.91;60.75;100228.13;5042292;28;19917;-78
2022/11/21 02:32:21;;;;;;;;;;;;;;;8.94;60.94;100226.69;5052153;28;19917;-79
2022/11/21 02:35:06;;;;;;;;;;;;;;;8.70;60.94;100226.31;5052560;28;19920;-79
2022/11/21 02:37:53;;;;;;;;;;;;;;;8.84;60.39;100227.78;5052477;28;19917;-79
2022/11/21 02:40:41;;;;;;;;;;;;;;;8.84;60.86;100221.56;5032343;28;19921;-78
2022/11/21 02:43:32;;;;;;;;;;;;;;;8.91;60.60;100224.59;5032387;28;19917;-79
2022/11/21 02:46:16;;;;;;;;;;;;;;;8.97;60.70;100216.03;5017877;28;19917;-78
2022/11/21 02:49:03;;;;;;;;;;;;;;;8.91;60.39;100206.44;5038636;28;19916;-78
2022/11/21 02:51:47;;;;;;;;;;;;;;;8.94;60.91;100203.06;5057292;28;20285;-78
2022/11/21 02:54:32;;;;;;;;;;;;;;;9.10;59.95;100192.56;5041300;28;20296;-78
2022/11/21 02:57:16;;;;;;;;;;;;;;;9.13;59.58;100193.88;5045279;28;19917;-78
2022/11/21 03:00:01;;;;;;;;;;;;;;;9.12;59.85;100179.50;5054299;28;19917;-78
2022/11/21 03:02:45;;;;;;;;;;;;;;;9.15;59.70;100189.69;5035603;28;19917;-78
2022/11/21 03:05:30;;;;;;;;;;;;;;;9.02;59.97;100188.75;5036954;28;19917;-77
2022/11/21 03:08:14;;;;;;;;;;;;;;;8.81;60.41;100184.25;5036015;28;19925;-78
2022/11/21 03:10:58;;;;;;;;;;;;;;;8.66;61.12;100171.94;5042754;28;19917;-77
2022/11/21 03:13:43;;;;;;;;;;;;;;;8.49;61.25;100172.69;5055386;28;19924;-79
2022/11/21 03:16:27;;;;;;;;;;;;;;;8.50;61.15;100168.88;5064001;28;20397;-79
2022/11/21 03:19:12;;;;;;;;;;;;;;;8.43;61.49;100162.31;5064746;28;19917;-79
2022/11/21 03:21:56;;;;;;;;;;;;;;;8.53;61.35;100149.25;5047543;28;19921;-78
2022/11/21 03:24:40;;;;;;;;;;;;;;;8.49;61.71;100145.59;5044078;28;19925;-79
2022/11/21 03:27:25;;;;;;;;;;;;;;;8.56;61.61;100153.25;5050424;28;20293;-78
2022/11/21 03:30:10;;;;;;;;;;;;;;;8.31;61.98;100146.66;5051690;28;19920;-80
2022/11/21 03:32:55;;;;;;;;;;;;;;;8.35;61.73;100149.53;5037940;28;19917;-79
2022/11/21 03:35:40;;;;;;;;;;;;;;;8.54;61.83;100150.06;5025142;28;19917;-79
2022/11/21 03:38:24;;;;;;;;;;;;;;;8.69;61.51;100152.31;5050600;28;19917;-79
2022/11/21 03:41:28;;;;;;;;;;;;;;;8.53;62.04;100151.19;5040727;28;19916;-78
2022/11/21 03:44:12;;;;;;;;;;;;;;;8.58;61.56;100154.53;5047246;28;19917;-77
2022/11/21 03:46:57;;;;;;;;;;;;;;;8.58;61.47;100154.53;5061363;28;20520;-77
2022/11/21 03:49:41;;;;;;;;;;;;;;;8.31;61.46;100149.38;5065133;28;19920;-78
2022/11/21 03:52:25;;;;;;;;;;;;;;;8.15;61.72;100135.41;5051454;28;19917;-78
2022/11/21 03:55:10;;;;;;;;;;;;;;;8.38;61.33;100138.09;5057033;28;19929;-79
2022/11/21 03:57:54;;;;;;;;;;;;;;;8.46;60.90;100129.97;5074928;28;19916;-77
2022/11/21 04:00:39;;;;;;;;;;;;;;;8.23;61.79;100139.25;5076338;28;19916;-80
2022/11/21 04:03:23;;;;;;;;;;;;;;;8.16;61.09;100131.59;5051807;28;20396;-77
2022/11/21 04:06:09;;;;;;;;;;;;;;;8.24;60.34;100137.34;5056408;28;19917;-79
2022/11/21 04:08:53;;;;;;;;;;;;;;;8.13;60.16;100145.75;5056040;28;19920;-79
2022/11/21 04:11:37;;;;;;;;;;;;;;;8.25;59.98;100144.38;5027568;28;19918;-78
2022/11/21 04:14:21;;;;;;;;;;;;;;;8.09;59.65;100149.41;5048943;28;19921;-78
2022/11/21 04:17:06;;;;;;;;;;;;;;;8.12;60.76;100148.78;5055547;28;19917;-77
2022/11/21 04:19:50;;;;;;;;;;;;;;;7.99;61.73;100145.06;5055585;28;20313;-78
2022/11/21 04:22:34;;;;;;;;;;;;;;;7.97;61.37;100149.22;5054553;28;19917;-78
2022/11/21 04:25:19;;;;;;;;;;;;;;;7.99;60.91;100146.97;5055006;28;19920;-80
2022/11/21 04:28:04;;;;;;;;;;;;;;;8.02;60.30;100152.59;5054848;28;19921;-79
2022/11/21 04:30:48;;;;;;;;;;;;;;;8.14;59.45;100152.78;5054645;28;19917;-79
2022/11/21 04:33:33;;;;;;;;;;;;;;;7.94;59.92;100147.91;5036939;28;20114;-79
2022/11/21 04:36:17;;;;;;;;;;;;;;;8.17;60.00;100145.94;5054693;28;19917;-79
2022/11/21 04:39:02;;;;;;;;;;;;;;;8.43;59.23;100146.06;5040707;28;19917;-75
2022/11/21 04:41:46;;;;;;;;;;;;;;;8.05;60.71;100133.00;5054892;28;19917;-78
2022/11/21 04:44:30;;;;;;;;;;;;;;;8.18;60.45;100135.91;5055060;28;19917;-79
2022/11/21 04:47:15;;;;;;;;;;;;;;;7.89;61.88;100139.13;5046271;28;19917;-78
2022/11/21 04:49:59;;;;;;;;;;;;;;;7.68;63.09;100134.25;5043345;28;19916;-78
2022/11/21 04:52:50;;;;;;;;;;;;;;;7.83;62.79;100133.03;5045916;28;20397;-79
2022/11/21 04:55:35;;;;;;;;;;;;;;;7.97;61.83;100135.66;5044947;28;19921;-78
2022/11/21 04:58:19;;;;;;;;;;;;;;;7.88;61.15;100141.03;5043093;28;20385;-78
2022/11/21 05:01:04;;;;;;;;;;;;;;;7.54;61.32;100138.94;5062031;28;20312;-78
2022/11/21 05:03:51;;;;;;;;;;;;;;;7.59;62.06;100135.28;5055101;28;19917;-77
2022/11/21 05:06:35;;;;;;;;;;;;;;;7.71;63.12;100146.38;5047134;28;19916;-78
2022/11/21 05:09:19;;;;;;;;;;;;;;;8.06;63.36;100136.50;5053361;28;19917;-78
2022/11/21 05:15:07;;;;;;;;;;;;;;;8.01;61.97;100133.94;5026855;28;19921;-78
2022/11/21 05:17:52;;;;;;;;;;;;;;;7.98;62.43;100134.53;5061100;28;19916;-78
2022/11/21 05:20:36;;;;;;;;;;;;;;;7.86;63.63;100142.47;5044317;28;19920;-77
2022/11/21 05:23:21;;;;;;;;;;;;;;;8.21;62.97;100127.97;5063998;28;19916;-77
2022/11/21 05:26:06;;;;;;;;;;;;;;;8.17;63.68;100124.28;5052385;28;19925;-78
2022/11/21 05:28:50;;;;;;;;;;;;;;;8.31;63.27;100127.69;5037952;28;20359;-77
2022/11/21 05:31:34;;;;;;;;;;;;;;;8.27;62.05;100125.91;5048916;28;19916;-77
2022/11/21 05:34:19;;;;;;;;;;;;;;;8.17;61.93;100121.56;5060351;28;20301;-78
2022/11/21 05:37:03;;;;;;;;;;;;;;;8.32;61.04;100115.75;5055410;28;19920;-78
2022/11/21 05:39:48;;;;;;;;;;;;;;;8.25;61.58;100104.53;5060624;28;19916;-78
2022/11/21 05:45:35;;;;;;;;;;;;;;;8.29;61.58;100110.91;5044672;28;19921;-77
2022/11/21 05:48:19;;;;;;;;;;;;;;;8.29;61.12;100097.38;5056911;28;19917;-80
2022/11/21 05:51:04;;;;;;;;;;;;;;;7.92;60.80;100093.28;5050303;28;19916;-80
2022/11/21 05:53:49;;;;;;;;;;;;;;;7.79;60.21;100098.78;5035832;28;20010;-79
2022/11/21 05:56:33;;;;;;;;;;;;;;;8.07;59.89;100094.78;5037100;28;20393;-79
2022/11/21 05:59:18;;;;;;;;;;;;;;;7.74;61.08;100092.41;5063036;28;20297;-79
2022/11/21 06:05:05;;;;;;;;;;;;;;;7.46;63.82;100096.41;5048504;28;19916;-78
2022/11/21 06:07:50;;;;;;;;;;;;;;;7.47;63.80;100113.41;5074735;28;19916;-78
2022/11/21 06:10:34;;;;;;;;;;;;;;;7.45;63.64;100105.63;5047997;28;20397;-78
2022/11/21 06:13:22;;;;;;;;;;;;;;;7.33;63.90;100108.09;5056844;28;19917;-78
2022/11/21 06:16:08;;;;;;;;;;;;;;;7.46;62.61;100091.00;5039708;28;19916;-78
2022/11/21 06:18:52;;;;;;;;;;;;;;;7.45;61.74;100094.81;5036110;28;19932;-78
2022/11/21 06:21:36;;;;;;;;;;;;;;;7.24;61.57;100093.72;5053295;28;19916;-78
2022/11/21 06:24:21;;;;;;;;;;;;;;;7.43;61.55;100099.72;5038239;28;19921;-79
2022/11/21 06:27:05;;;;;;;;;;;;;;;7.40;61.50;100091.44;5049261;28;19917;-78
2022/11/21 06:29:50;;;;;;;;;;;;;;;7.27;61.57;100087.69;5041933;28;19917;-79
2022/11/21 06:32:37;;;;;;;;;;;;;;;7.32;60.64;100093.75;5040962;28;19921;-78
2022/11/21 06:35:22;;;;;;;;;;;;;;;7.37;61.16;100102.84;5038451;28;19920;-79
2022/11/21 06:38:06;;;;;;;;;;;;;;;7.46;61.15;100099.13;5042422;28;19917;-78
2022/11/21 06:40:51;;;;;;;;;;;;;;;7.35;61.32;100113.19;5053137;28;19917;-75
2022/11/21 06:43:35;;;;;;;;;;;;;;;7.16;60.66;100118.78;5038990;28;19917;-76
2022/11/21 06:46:20;;;;;;;;;;;;;;;6.77;60.95;100109.41;5041942;28;19916;-77
2022/11/21 06:49:04;;;;;;;;;;;;;;;7.03;61.38;100112.31;5038876;28;19921;-76
2022/11/21 06:51:48;;;;;;;;;;;;;;;7.07;61.48;100121.41;5037154;28;19917;-76
2022/11/21 06:54:33;;;;;;;;;;;;;;;7.22;61.79;100131.06;5064211;28;19921;-76
2022/11/21 06:57:17;;;;;;;;;;;;;;;7.45;61.43;100121.84;5059004;28;20378;-75
2022/11/21 07:00:02;;;;;;;;;;;;;;;7.37;61.03;100125.28;5055465;28;19916;-77
2022/11/21 07:02:47;;;;;;;;;;;;;;;7.27;62.23;100128.25;5063715;28;19924;-78
2022/11/21 07:05:31;;;;;;;;;;;;;;;7.07;62.76;100128.72;5042185;28;20349;-78
2022/11/21 07:08:16;;;;;;;;;;;;;;;6.90;63.53;100128.59;5035720;28;19925;-77
2022/11/21 07:11:05;;;;;;;;;;;;;;;7.05;62.48;100128.25;5049937;28;19924;-78
2022/11/21 07:13:50;;;;;;;;;;;;;;;7.22;62.53;100133.75;5036988;28;19924;-79
2022/11/21 07:16:34;;;;;;;;;;;;;;;7.29;62.29;100137.66;5047953;28;19917;-77
2022/11/21 07:19:19;;;;;;;;;;;;;;;7.38;62.73;100145.03;5050286;28;20305;-79
2022/11/21 07:22:03;;;;;;;;;;;;;;;7.36;63.17;100150.75;5051873;28;19917;-78
2022/11/21 07:24:48;;;;;;;;;;;;;;;7.23;63.37;100157.00;5047777;28;19916;-78
2022/11/21 07:27:32;;;;;;;;;;;;;;;7.30;63.51;100162.78;5050503;28;19917;-77
2022/11/21 07:30:17;;;;;;;;;;;;;;;7.37;63.66;100155.03;5040655;28;19917;-77
2022/11/21 07:33:03;;;;;;;;;;;;;;;7.16;63.41;100164.75;5053350;28;19916;-76
2022/11/21 07:35:47;;;;;;;;;;;;;;;7.05;63.63;100161.50;5038533;28;20542;-77
2022/11/21 07:38:31;;;;;;;;;;;;;;;6.90;64.86;100163.72;5047245;28;19917;-76
2022/11/21 07:41:16;;;;;;;;;;;;;;;6.99;64.42;100161.91;5056571;28;19916;-77
2022/11/21 07:44:00;;;;;;;;;;;;;;;6.85;64.97;100160.03;5055892;28;19917;-78
2022/11/21 07:46:45;;;;;;;;;;;;;;;6.97;65.11;100155.97;5056018;28;19920;-77
2022/11/21 07:49:29;;;;;;;;;;;;;;;7.03;65.54;100152.06;5053765;28;19917;-77
2022/11/21 07:52:13;;;;;;;;;;;;;;;7.14;65.18;100154.25;5053258;28;20388;-77
2022/11/21 07:55:01;;;;;;;;;;;;;;;7.25;65.33;100154.81;5044125;28;20303;-77
2022/11/21 07:57:45;;;;;;;;;;;;;;;7.28;65.70;100156.88;5055281;28;19917;-77
2022/11/21 08:00:31;;;;;;;;;;;;;;;7.46;65.01;100150.50;5052888;28;20376;-77
2022/11/21 08:03:15;;;;;;;;;;;;;;;7.46;65.23;100145.09;5036678;28;19916;-77
2022/11/21 08:06:01;;;;;;;;;;;;;;;7.57;65.15;100151.03;5055045;28;19917;-77
2022/11/21 08:08:47;;;;;;;;;;;;;;;7.62;66.27;100159.81;5054747;28;19917;-76
2022/11/21 08:11:31;;;;;;;;;;;;;;;7.55;66.78;100164.88;5056691;28;19943;-77
2022/11/21 08:14:16;;;;;;;;;;;;;;;7.50;67.86;100167.72;5055568;28;19921;-77
2022/11/21 08:17:00;;;;;;;;;;;;;;;7.76;67.30;100167.09;5041648;28;19916;-76
2022/11/21 08:19:45;;;;;;;;;;;;;;;7.84;67.40;100144.66;5049653;28;19925;-77
2022/11/21 08:22:29;;;;;;;;;;;;;;;7.86;68.02;100156.00;5042281;28;19917;-77
2022/11/21 08:25:14;;;;;;;;;;;;;;;7.78;68.68;100154.03;5045501;28;19916;-77
2022/11/21 08:27:58;;;;;;;;;;;;;;;7.84;69.08;100158.19;5066498;28;19916;-79
2022/11/21 08:30:43;;;;;;;;;;;;;;;8.01;69.23;100163.72;5041455;28;19917;-77
2022/11/21 08:33:28;;;;;;;;;;;;;;;8.14;69.67;100149.25;5057863;28;19917;-78
2022/11/21 08:36:12;;;;;;;;;;;;;;;8.24;68.94;100142.75;5069057;28;19920;-79
2022/11/21 08:38:57;;;;;;;;;;;;;;;8.33;68.77;100136.28;5060511;28;19917;-79
2022/11/21 08:44:44;;;;;;;;;;;;;;;8.39;69.96;100124.19;5051116;28;19917;-78
2022/11/21 08:47:31;;;;;;;;;;;;;;;8.49;70.16;100134.75;5056805;28;19917;-79
2022/11/21 08:50:15;;;;;;;;;;;;;;;8.48;69.76;100138.56;5039531;28;19936;-77
2022/11/21 08:53:00;;;;;;;;;;;;;;;8.56;69.32;100131.59;5056421;28;19917;-78
2022/11/21 08:55:44;;;;;;;;;;;;;;;8.34;70.05;100139.81;5075256;28;19925;-78
2022/11/21 08:58:29;;;;;;;;;;;;;;;8.49;70.14;100129.31;5061705;28;19916;-78
2022/11/21 09:01:14;;;;;;;;;;;;;;;8.59;69.92;100129.03;5051249;28;19916;-77
2022/11/21 09:03:58;;;;;;;;;;;;;;;8.76;69.93;100116.63;5066286;28;19916;-78
2022/11/21 09:06:43;;;;;;;;;;;;;;;8.62;70.37;100121.41;5061648;28;19916;-78
2022/11/21 09:09:27;;;;;;;;;;;;;;;8.67;70.30;100123.94;5075412;28;19916;-78
2022/11/21 09:12:13;;;;;;;;;;;;;;;8.72;69.94;100129.22;5074945;28;19921;-78
2022/11/21 09:18:04;;;;;;;;;;;;;;;8.52;70.64;100134.13;5054754;28;19917;-78
2022/11/21 09:20:48;;;;;;;;;;;;;;;8.54;70.84;100141.94;5054685;28;20392;-76
2022/11/21 09:23:33;;;;;;;;;;;;;;;8.65;71.02;100145.94;5041896;28;19916;-78
2022/11/21 09:26:17;;;;;;;;;;;;;;;8.58;71.11;100138.28;5048940;28;19917;-76
2022/11/21 09:29:02;;;;;;;;;;;;;;;8.73;70.84;100141.66;5064242;28;19916;-77
2022/11/21 09:31:46;;;;;;;;;;;;;;;8.52;71.55;100138.75;5071763;28;20380;-76
2022/11/21 09:34:31;;;;;;;;;;;;;;;8.47;71.71;100137.00;5040205;28;19921;-77
2022/11/21 09:37:16;;;;;;;;;;;;;;;8.66;71.50;100131.28;5054291;28;19916;-78
2022/11/21 09:40:00;;;;;;;;;;;;;;;8.63;71.24;100133.84;5039893;28;19917;-76
2022/11/21 09:42:45;;;;;;;;;;;;;;;8.41;72.66;100124.69;5064081;28;20327;-77
2022/11/21 09:45:33;;;;;;;;;;;;;;;8.34;73.63;100116.22;5059175;28;19917;-77
2022/11/21 09:48:21;;;;;;;;;;;;;;;8.44;73.27;100112.41;5062487;28;19917;-78
2022/11/21 09:51:10;;;;;;;;;;;;;;;8.56;72.64;100112.63;5060500;28;19920;-77
2022/11/21 09:54:16;;;;;;;;;;;;;;;8.63;73.37;100109.44;5048018;28;19921;-76
2022/11/21 09:57:01;;;;;;;;;;;;;;;8.70;72.79;100121.41;5053827;28;19920;-79
2022/11/21 09:59:46;;;;;;;;;;;;;;;8.77;72.70;100118.22;5054123;28;19921;-75
2022/11/21 10:02:31;;;;;;;;;;;;;;;8.92;73.93;100123.19;5041651;28;19916;-75
2022/11/21 10:05:16;;;;;;;;;;;;;;;9.07;72.10;100122.69;5039685;28;19916;-77
2022/11/21 10:08:04;;;;;;;;;;;;;;;8.83;72.73;100108.81;5038381;28;19917;-77
2022/11/21 10:11:07;;;;;;;;;;;;;;;8.87;72.29;100117.91;5053645;28;19916;-78
2022/11/21 10:14:00;;;;;;;;;;;;;;;8.93;72.42;100117.44;5040609;28;19917;-77
2022/11/21 10:16:57;;;;;;;;;;;;;;;9.04;72.46;100117.13;5053461;28;19921;-77
2022/11/21 10:19:56;;;;;;;;;;;;;;;8.87;72.73;100107.06;5039390;28;19917;-77
2022/11/21 10:22:59;;;;;;;;;;;;;;;8.71;73.38;100092.38;5056136;28;20301;-78
2022/11/21 10:25:53;;;;;;;;;;;;;;;8.62;74.67;100094.28;5040661;28;19917;-77
2022/11/21 10:28:53;;;;;;;;;;;;;;;8.71;74.66;100098.59;5054251;28;19917;-76
2022/11/21 10:31:39;;;;;;;;;;;;;;;8.96;73.60;100097.03;5047158;28;19917;-76
2022/11/21 10:34:28;;;;;;;;;;;;;;;9.06;73.80;100093.97;5055345;28;19917;-75
2022/11/21 10:37:15;;;;;;;;;;;;;;;9.29;72.98;100087.28;5053521;28;19920;-78
2022/11/21 10:40:18;;;;;;;;;;;;;;;9.38;72.62;100079.91;5061228;28;19917;-76
2022/11/21 10:46:25;;;;;;;;;;;;;;;9.49;73.03;100064.09;5051368;28;19916;-76
2022/11/21 10:49:11;;;;;;;;;;;;;;;9.59;72.56;100057.50;5046564;28;19925;-77
2022/11/21 10:52:08;;;;;;;;;;;;;;;9.50;72.68;100043.16;5041975;28;20677;-76
2022/11/21 10:55:02;;;;;;;;;;;;;;;9.57;72.62;100046.97;5059170;28;19920;-77
2022/11/21 10:57:48;;;;;;;;;;;;;;;9.55;72.52;100049.19;5048374;28;19924;-76
2022/11/21 11:00:32;;;;;;;;;;;;;;;9.56;72.55;100047.28;5073014;22;19932;-83
2022/11/21 11:03:17;;;;;;;;;;;;;;;9.64;72.41;100049.19;5038729;28;20381;-79
2022/11/21 11:06:02;;;;;;;;;;;;;;;9.41;71.75;100038.56;5031434;28;20382;-76
2022/11/21 11:08:52;;;;;;;;;;;;;;;10.23;77.27;100037.25;5050261;28;19917;-77
2022/11/21 11:11:37;;;;;;;;;;;;;;;10.23;69.94;100034.53;5033879;28;20258;-76
2022/11/21 11:14:31;;;;;;;;;;;;;;;9.36;72.40;100016.22;5032887;28;19921;-75
2022/11/21 11:17:24;;;;;;;;;;;;;;;9.49;73.18;100020.66;5031949;28;20312;-76
2022/11/21 11:20:32;;;;;;;;;;;;;;;8.91;75.28;100022.06;5034549;28;19924;-76
2022/11/21 11:23:21;;;;;;;;;;;;;;;9.55;72.96;100022.06;5030741;28;19917;-75
2022/11/21 11:26:17;;;;;;;;;;;;;;;9.50;75.83;100021.47;5036851;28;19939;-76
2022/11/21 11:29:20;;;;;;;;;;;;;;;9.24;73.32;100006.06;5048654;28;19917;-76
2022/11/21 11:32:13;;;;;;;;;;;;;;;9.12;75.25;99994.25;5034751;28;19917;-76
2022/11/21 11:35:00;;;;;;;;;;;;;;;9.74;72.61;99995.31;5035266;28;19921;-76
2022/11/21 11:37:57;;;;;;;;;;;;;;;10.11;71.66;99993.66;5034011;28;19917;-76
2022/11/21 11:40:43;;;;;;;;;;;;;;;11.22;78.42;99984.91;5033989;28;19921;-76
2022/11/21 11:50:13;;;;;;;;;;;;;;;13.16;59.22;99977.19;5033220;28;20407;-75
2022/11/21 11:53:01;;;;;;;;;;;;;;;12.00;63.43;99969.97;5031487;28;19917;-75
2022/11/21 11:55:54;;;;;;;;;;;;;;;11.80;62.35;99978.28;5054408;28;20374;-75
2022/11/21 11:58:53;;;;;;;;;;;;;;;11.05;65.06;99983.94;5032106;28;19921;-75
2022/11/21 12:01:39;;;;;;;;;;;;;;;10.81;65.52;99970.28;5031857;28;19917;-75
2022/11/21 12:04:28;;;;;;;;;;;;;;;10.68;67.24;99963.19;5032738;28;19921;-76
2022/11/21 12:07:25;;;;;;;;;;;;;;;10.49;67.55;99960.16;5030848;28;19921;-75
2022/11/21 12:10:23;;;;;;;;;;;;;;;10.51;67.62;99957.94;5030561;28;19917;-75
2022/11/21 12:13:13;;;;;;;;;;;;;;;10.53;67.03;99951.00;5034600;28;19917;-75
2022/11/21 12:16:01;;;;;;;;;;;;;;;10.44;69.42;99957.66;5034451;28;19921;-75
2022/11/21 12:18:48;;;;;;;;;;;;;;;9.97;69.67;99955.09;5050667;28;19917;-75
2022/11/21 12:21:33;;;;;;;;;;;;;;;10.51;70.16;99953.28;5047713;28;19917;-77
2022/11/21 12:24:19;;;;;;;;;;;;;;;10.40;70.92;99945.88;5036473;28;19917;-77
2022/11/21 12:27:15;;;;;;;;;;;;;;;10.72;68.61;99936.91;5034119;28;19917;-77
2022/11/21 12:30:05;;;;;;;;;;;;;;;10.71;69.46;99938.88;5028437;28;19917;-77
2022/11/21 12:33:08;;;;;;;43.95;28.23;;;;;;;11.20;67.04;99924.56;5032833;28;20394;-80
2022/11/21 12:36:07;;;;;;;49.55;24.85;;;;;;;11.23;64.81;99905.63;5037599;28;20060;-79
2022/11/21 12:39:12;;;;;;;40.65;26.67;;;;;;;11.23;64.26;99900.19;5037462;28;20052;-79
2022/11/21 12:45:32;;;;;;;50.35;27.23;;;;;;;11.17;65.21;99896.13;5040011;28;20041;-80
2022/11/21 12:55:13;;;;;;;53.70;30.35;;;;;;;11.12;65.99;99872.63;5034877;28;20099;-80
2022/11/21 12:58:25;;;;;;;50.58;28.05;;;;;;;11.14;65.88;99866.84;5038917;28;20525;-80
2022/11/21 13:01:24;;;;;;;44.80;25.83;;;;;;;11.20;65.12;99864.69;5036262;28;20044;-80
2022/11/21 13:04:19;;;;;;;43.25;26.77;;;;;;;11.18;65.15;99867.75;5033797;28;20048;-80
2022/11/21 13:07:05;;;;;;;39.25;26.17;;;;;;;11.19;65.43;99874.78;5050964;28;20056;-80
2022/11/21 13:09:53;;;;;;;38.15;25.55;;;;;;;11.19;65.87;99874.00;5035379;28;20060;-80
2022/11/21 13:12:47;;;;;;;46.42;26.95;;;;;;;11.17;65.77;99879.00;5034801;28;20095;-79
2022/11/21 13:15:54;;;;;;;46.15;25.60;;;;;;;11.13;65.48;99885.09;5036242;28;20052;-81
2022/11/21 13:18:45;;;;;;;50.10;24.70;;;;;;;11.07;67.04;99891.88;5037090;28;20056;-81
2022/11/21 13:21:48;;;;;;;42.35;24.83;;;;;;;10.99;66.04;99892.00;5025898;28;20040;-81
2022/11/21 13:24:46;;;;;;;43.65;25.40;;;;;;;11.02;66.79;99891.34;5040181;28;20409;-81
2022/11/21 13:27:34;;;;;;;46.92;26.05;;;;;;;11.03;67.25;99896.44;5049779;28;20088;-81
2022/11/21 13:30:22;;;;;;;39.67;25.50;;;;;;;11.01;66.39;99901.44;5036236;28;20064;-80
2022/11/21 13:33:09;;;;;;;39.20;25.13;;;;;;;11.00;67.08;99891.66;5034766;28;20508;-82
2022/11/21 13:35:54;;;;;;;39.58;25.77;;;;;;;11.05;66.16;99894.16;5030338;28;20061;-82
2022/11/21 13:38:52;;;;;;;37.88;24.88;;;;;;;11.08;66.46;99885.31;5028792;28;20056;-82
2022/11/21 13:44:50;;;;;;;41.38;23.15;;;;;;;11.09;66.27;99872.50;5036590;28;20045;-81
2022/11/21 13:47:55;;;;;;;37.30;24.35;;;;;;;11.21;65.80;99867.09;5039971;28;20056;-82
2022/11/21 13:51:01;;;;;;;38.17;24.52;;;;;;;11.25;65.62;99867.19;5050369;28;20044;-81
2022/11/21 13:54:07;;;;;;;45.75;25.58;;;;;;;11.24;65.69;99841.91;5054460;28;20064;-81
2022/11/21 13:57:18;;;;;;;32.72;19.98;;;;;;;11.27;65.50;99848.59;5037413;28;20040;-80
2022/11/21 14:00:12;;;;;;;44.92;27.55;;;;;;;11.28;65.18;99850.19;5050019;28;20048;-80
2022/11/21 14:03:32;;;;;;;47.78;27.23;;;;;;;11.34;64.93;99840.66;5033524;28;20044;-80
2022/11/21 14:06:33;;;;;;;55.47;28.95;;;;;;;11.35;64.71;99851.22;5036653;28;20041;-80
2022/11/21 14:09:20;;;;;;;56.03;29.23;;;;;;;11.34;65.21;99854.25;5043450;28;20045;-83
2022/11/21 14:12:20;;;;;;;54.58;30.27;;;;;;;11.37;64.85;99856.31;5031033;28;20047;-81
2022/11/21 14:15:05;;;;;;;44.00;26.98;;;;;;;11.42;64.85;99858.81;5038271;28;20037;-81
2022/11/21 14:17:55;;;;;;;44.33;27.52;;;;;;;11.39;64.41;99857.53;5034368;28;20052;-81
2022/11/21 14:21:03;;;;;;;43.50;27.25;;;;;;;11.43;64.19;99872.06;5040584;28;20065;-80
2022/11/21 14:23:48;;;;;;;46.65;27.73;;;;;;;11.41;64.68;99876.28;5039642;28;20684;-80
2022/11/21 14:26:39;;;;;;;44.63;24.02;;;;;;;11.37;64.56;99886.25;5037939;28;20049;-81
2022/11/21 14:29:40;;;;;;;67.72;30.67;;;;;;;11.32;65.25;99878.31;5036426;28;20060;-81
2022/11/21 14:32:28;;;;;;;59.03;29.52;;;;;;;11.22;65.36;99874.13;5036346;28;20076;-80
2022/11/21 14:35:22;;;;;;;54.05;31.83;;;;;;;11.23;65.55;99867.53;5033875;28;20061;-80
2022/11/21 14:38:07;;;;;;;48.72;28.73;;;;;;;11.24;65.16;99865.59;5030029;28;20044;-80
2022/11/21 14:41:25;;;;;;;38.30;24.08;;;;;;;11.18;65.84;99856.06;5029920;28;20049;-80
2022/11/21 14:44:09;;;;;;;49.85;29.67;;;;;;;11.24;65.56;99855.50;5036573;28;20049;-80
2022/11/21 14:47:14;;;;;;;51.47;31.50;;;;;;;11.34;65.13;99874.09;5041041;28;20064;-81
2022/11/21 14:50:01;;;;;;;56.00;31.23;;;;;;;11.37;64.88;99869.94;5044527;28;20044;-81
2022/11/21 14:52:46;;;;;;;46.20;30.55;;;;;;;11.39;64.62;99873.88;5042209;28;20057;-81
2022/11/21 14:55:31;;;;;;;33.63;22.27;;;;;;;11.42;64.27;99869.69;5040371;28;20052;-80